Prairie Rose, North Dakota
Current Conditions -  °F | °C
As of 3:53 AM on Thursday 29 Jan 2015 (Local Time) from KFAR Reporting Station
Light Snow Light Snow  
Wind Chill:   Ceiling: 1500
Heat Index: 25°   Visibility: 9mi
Dew Point: 19°   Wind: 25mph
Humidity: 78%   Direction: 340°NNW
Pressure: 30.22"   Gusts: 36mph
Location:  46.8079°N, 96.8643°W
Report Text: KFAR 290953Z 34022G31KT 9SM -SN OVC015 M04/M07 A3022 RMK AO2 PK WND 33032/0928 SNB27 SLP247 P0000 T10391072
Loading
Personal Weather Stations






























Interactive Weather Map New forecast layout! Learn more

10-Day Weather Forecast

Advertisements
Track Severe Weather on mobile